sensor_id;sensor_type;location;lat;lon;timestamp;pressure;altitude;pressure_sealevel;temperature
18161;BMP280;9205;52.032;4.314;2023-04-24T00:02:07;99891.25;;;11.54
18161;BMP280;9205;52.032;4.314;2023-04-24T00:04:36;99886.69;;;11.62
18161;BMP280;9205;52.032;4.314;2023-04-24T00:07:06;99890.13;;;11.61
18161;BMP280;9205;52.032;4.314;2023-04-24T00:09:33;99896.69;;;11.67
18161;BMP280;9205;52.032;4.314;2023-04-24T00:12:00;99898.22;;;11.71
18161;BMP280;9205;52.032;4.314;2023-04-24T00:14:31;99899.28;;;11.65
18161;BMP280;9205;52.032;4.314;2023-04-24T00:16:58;99898.34;;;11.68
18161;BMP280;9205;52.032;4.314;2023-04-24T00:19:25;99899.94;;;11.70
18161;BMP280;9205;52.032;4.314;2023-04-24T00:21:52;99899.28;;;11.65
18161;BMP280;9205;52.032;4.314;2023-04-24T00:24:20;99901.91;;;11.64
18161;BMP280;9205;52.032;4.314;2023-04-24T00:26:48;99904.13;;;11.71
18161;BMP280;9205;52.032;4.314;2023-04-24T00:29:15;99903.50;;;11.66
18161;BMP280;9205;52.032;4.314;2023-04-24T00:31:43;99900.94;;;11.66
18161;BMP280;9205;52.032;4.314;2023-04-24T00:34:11;99902.91;;;11.60
18161;BMP280;9205;52.032;4.314;2023-04-24T00:36:38;99902.91;;;11.60
18161;BMP280;9205;52.032;4.314;2023-04-24T00:39:06;99894.31;;;11.62
18161;BMP280;9205;52.032;4.314;2023-04-24T00:41:35;99902.38;;;11.52
18161;BMP280;9205;52.032;4.314;2023-04-24T00:44:02;99895.53;;;11.54
18161;BMP280;9205;52.032;4.314;2023-04-24T00:46:30;99902.13;;;11.58
18161;BMP280;9205;52.032;4.314;2023-04-24T00:49:00;99898.66;;;11.60
18161;BMP280;9205;52.032;4.314;2023-04-24T00:51:28;99901.13;;;11.62
18161;BMP280;9205;52.032;4.314;2023-04-24T00:53:56;99895.38;;;11.57
18161;BMP280;9205;52.032;4.314;2023-04-24T00:56:24;99896.81;;;11.64
18161;BMP280;9205;52.032;4.314;2023-04-24T00:58:51;99894.44;;;11.59
18161;BMP280;9205;52.032;4.314;2023-04-24T01:01:20;99895.38;;;11.57
18161;BMP280;9205;52.032;4.314;2023-04-24T01:03:51;99906.41;;;11.57
18161;BMP280;9205;52.032;4.314;2023-04-24T01:06:21;99894.31;;;11.62
18161;BMP280;9205;52.032;4.314;2023-04-24T01:08:49;99894.13;;;11.67
18161;BMP280;9205;52.032;4.314;2023-04-24T01:11:17;99896.84;;;11.62
18161;BMP280;9205;52.032;4.314;2023-04-24T01:13:45;99898.69;;;11.59
18161;BMP280;9205;52.032;4.314;2023-04-24T01:16:13;99901.25;;;11.59
18161;BMP280;9205;52.032;4.314;2023-04-24T01:18:40;99893.50;;;11.62
18161;BMP280;9205;52.032;4.314;2023-04-24T01:21:09;99896.81;;;11.64
18161;BMP280;9205;52.032;4.314;2023-04-24T01:23:43;99892.72;;;11.60
18161;BMP280;9205;52.032;4.314;2023-04-24T01:26:11;99896.13;;;11.60
18161;BMP280;9205;52.032;4.314;2023-04-24T01:28:39;99894.44;;;11.59
18161;BMP280;9205;52.032;4.314;2023-04-24T01:31:06;99896.16;;;11.59
18161;BMP280;9205;52.032;4.314;2023-04-24T01:33:34;99898.84;;;11.56
18161;BMP280;9205;52.032;4.314;2023-04-24T01:36:03;99896.28;;;11.56
18161;BMP280;9205;52.032;4.314;2023-04-24T01:38:31;99895.34;;;11.58
18161;BMP280;9205;52.032;4.314;2023-04-24T01:41:01;99893.50;;;11.62
18161;BMP280;9205;52.032;4.314;2023-04-24T01:43:28;99895.78;;;11.68
18161;BMP280;9205;52.032;4.314;2023-04-24T01:45:57;99896.16;;;11.59
18161;BMP280;9205;52.032;4.314;2023-04-24T01:48:25;99898.69;;;11.59
18161;BMP280;9205;52.032;4.314;2023-04-24T01:50:52;99894.38;;;11.61
18161;BMP280;9205;52.032;4.314;2023-04-24T01:53:19;99903.53;;;11.65
18161;BMP280;9205;52.032;4.314;2023-04-24T01:55:47;99894.28;;;11.64
18161;BMP280;9205;52.032;4.314;2023-04-24T01:58:16;99900.94;;;11.66
18161;BMP280;9205;52.032;4.314;2023-04-24T02:00:43;99900.09;;;11.66
18161;BMP280;9205;52.032;4.314;2023-04-24T02:03:10;99892.03;;;11.56
18161;BMP280;9205;52.032;4.314;2023-04-24T02:05:37;99902.97;;;11.58
18161;BMP280;9205;52.032;4.314;2023-04-24T02:08:05;99896.22;;;11.57
18161;BMP280;9205;52.032;4.314;2023-04-24T02:10:32;99898.00;;;11.55
18161;BMP280;9205;52.032;4.314;2023-04-24T02:12:59;99891.84;;;11.61
18161;BMP280;9205;52.032;4.314;2023-04-24T02:15:28;99901.31;;;11.57
18161;BMP280;9205;52.032;4.314;2023-04-24T02:17:56;99898.94;;;11.53
18161;BMP280;9205;52.032;4.314;2023-04-24T02:20:23;99895.06;;;11.43
18161;BMP280;9205;52.032;4.314;2023-04-24T02:22:52;99899.41;;;11.41
18161;BMP280;9205;52.032;4.314;2023-04-24T02:25:20;99896.13;;;11.37
18161;BMP280;9205;52.032;4.314;2023-04-24T02:27:47;99901.19;;;11.39
18161;BMP280;9205;52.032;4.314;2023-04-24T02:30:14;99913.34;;;11.31
18161;BMP280;9205;52.032;4.314;2023-04-24T02:32:43;99899.09;;;11.27
18161;BMP280;9205;52.032;4.314;2023-04-24T02:35:11;99905.28;;;11.20
18161;BMP280;9205;52.032;4.314;2023-04-24T02:37:38;99897.63;;;11.21
18161;BMP280;9205;52.032;4.314;2023-04-24T02:40:07;99907.81;;;11.21
18161;BMP280;9205;52.032;4.314;2023-04-24T02:42:35;99907.75;;;11.23
18161;BMP280;9205;52.032;4.314;2023-04-24T02:45:02;99903.63;;;11.19
18161;BMP280;9205;52.032;4.314;2023-04-24T02:47:29;99900.22;;;11.20
18161;BMP280;9205;52.032;4.314;2023-04-24T02:49:58;99903.63;;;11.19
18161;BMP280;9205;52.032;4.314;2023-04-24T02:52:25;99905.06;;;11.26
18161;BMP280;9205;52.032;4.314;2023-04-24T02:54:54;99904.06;;;11.30
18161;BMP280;9205;52.032;4.314;2023-04-24T02:57:22;99907.81;;;11.21
18161;BMP280;9205;52.032;4.314;2023-04-24T02:59:49;99906.16;;;11.20
18161;BMP280;9205;52.032;4.314;2023-04-24T03:02:16;99894.41;;;11.16
18161;BMP280;9205;52.032;4.314;2023-04-24T03:04:43;99884.97;;;11.20
18161;BMP280;9205;52.032;4.314;2023-04-24T03:07:12;99876.38;;;11.22
18161;BMP280;9205;52.032;4.314;2023-04-24T03:09:39;99885.97;;;11.16
18161;BMP280;9205;52.032;4.314;2023-04-24T03:12:08;99879.88;;;11.20
18161;BMP280;9205;52.032;4.314;2023-04-24T03:14:35;99880.84;;;11.17
18161;BMP280;9205;52.032;4.314;2023-04-24T03:17:02;99894.06;;;11.25
18161;BMP280;9205;52.032;4.314;2023-04-24T03:19:30;99893.25;;;11.25
18161;BMP280;9205;52.032;4.314;2023-04-24T03:22:03;99897.16;;;11.33
18161;BMP280;9205;52.032;4.314;2023-04-24T03:24:32;99896.28;;;11.34
18161;BMP280;9205;52.032;4.314;2023-04-24T03:26:59;99909.88;;;11.33
18161;BMP280;9205;52.032;4.314;2023-04-24T03:29:42;99908.91;;;11.36
18161;BMP280;9205;52.032;4.314;2023-04-24T03:32:10;99906.50;;;11.33
18161;BMP280;9205;52.032;4.314;2023-04-24T03:34:38;99911.44;;;11.36
18161;BMP280;9205;52.032;4.314;2023-04-24T03:37:07;99910.03;;;11.29
18161;BMP280;9205;52.032;4.314;2023-04-24T03:39:39;99911.88;;;11.25
18161;BMP280;9205;52.032;4.314;2023-04-24T03:42:06;99923.53;;;11.31
18161;BMP280;9205;52.032;4.314;2023-04-24T03:44:45;99920.63;;;11.40
18161;BMP280;9205;52.032;4.314;2023-04-24T03:47:12;99922.41;;;11.38
18161;BMP280;9205;52.032;4.314;2023-04-24T03:49:39;99922.94;;;11.46
18161;BMP280;9205;52.032;4.314;2023-04-24T03:52:08;99924.59;;;11.47
18161;BMP280;9205;52.032;4.314;2023-04-24T03:54:35;99927.56;;;11.36
18161;BMP280;9205;52.032;4.314;2023-04-24T03:57:04;99936.81;;;11.37
18161;BMP280;9205;52.032;4.314;2023-04-24T03:59:32;99945.63;;;11.29
18161;BMP280;9205;52.032;4.314;2023-04-24T04:02:11;99940.00;;;11.21
18161;BMP280;9205;52.032;4.314;2023-04-24T04:04:38;99946.84;;;11.19
18161;BMP280;9205;52.032;4.314;2023-04-24T04:07:06;99945.72;;;11.04
18161;BMP280;9205;52.032;4.314;2023-04-24T04:09:33;99957.81;;;10.98
18161;BMP280;9205;52.032;4.314;2023-04-24T04:12:01;99965.53;;;10.95
18161;BMP280;9205;52.032;4.314;2023-04-24T04:14:33;99969.72;;;10.97
18161;BMP280;9205;52.032;4.314;2023-04-24T04:17:00;99981.16;;;10.85
18161;BMP280;9205;52.032;4.314;2023-04-24T04:19:27;99987.25;;;10.81
18161;BMP280;9205;52.032;4.314;2023-04-24T04:21:55;99991.50;;;10.80
18161;BMP280;9205;52.032;4.314;2023-04-24T04:24:28;99995.03;;;10.76
18161;BMP280;9205;52.032;4.314;2023-04-24T04:26:58;100001.22;;;10.69
18161;BMP280;9205;52.032;4.314;2023-04-24T04:29:34;100010.50;;;10.70
18161;BMP280;9205;52.032;4.314;2023-04-24T04:32:04;100023.06;;;10.73
18161;BMP280;9205;52.032;4.314;2023-04-24T04:34:32;100027.50;;;10.68
18161;BMP280;9205;52.032;4.314;2023-04-24T04:36:59;100024.44;;;10.59
18161;BMP280;9205;52.032;4.314;2023-04-24T04:39:39;100039.94;;;10.51
18161;BMP280;9205;52.032;4.314;2023-04-24T04:42:10;100035.06;;;10.45
18161;BMP280;9205;52.032;4.314;2023-04-24T04:44:42;100045.50;;;10.36
18161;BMP280;9205;52.032;4.314;2023-04-24T04:47:16;100063.44;;;10.32
18161;BMP280;9205;52.032;4.314;2023-04-24T04:49:44;100060.81;;;10.35
18161;BMP280;9205;52.032;4.314;2023-04-24T04:52:18;100072.78;;;10.31
18161;BMP280;9205;52.032;4.314;2023-04-24T04:54:48;100077.00;;;10.31
18161;BMP280;9205;52.032;4.314;2023-04-24T04:57:15;100087.88;;;10.34
18161;BMP280;9205;52.032;4.314;2023-04-24T04:59:45;100096.00;;;10.45
18161;BMP280;9205;52.032;4.314;2023-04-24T05:02:20;100093.53;;;10.42
18161;BMP280;9205;52.032;4.314;2023-04-24T05:04:47;100101.28;;;10.39
18161;BMP280;9205;52.032;4.314;2023-04-24T05:07:15;100121.47;;;10.42
18161;BMP280;9205;52.032;4.314;2023-04-24T05:09:47;100121.72;;;10.35
18161;BMP280;9205;52.032;4.314;2023-04-24T05:12:14;100128.50;;;10.34
18161;BMP280;9205;52.032;4.314;2023-04-24T05:14:50;100137.28;;;10.24
18161;BMP280;9205;52.032;4.314;2023-04-24T05:17:20;100140.13;;;10.15
18161;BMP280;9205;52.032;4.314;2023-04-24T05:19:47;100148.47;;;10.19
18161;BMP280;9205;52.032;4.314;2023-04-24T05:22:15;100148.53;;;10.16
18161;BMP280;9205;52.032;4.314;2023-04-24T05:24:49;100164.31;;;10.25
18161;BMP280;9205;52.032;4.314;2023-04-24T05:27:34;100169.50;;;10.22
18161;BMP280;9205;52.032;4.314;2023-04-24T05:30:08;100179.94;;;10.13
18161;BMP280;9205;52.032;4.314;2023-04-24T05:32:35;100192.63;;;10.13
18161;BMP280;9205;52.032;4.314;2023-04-24T05:35:03;100196.81;;;10.14
18161;BMP280;9205;52.032;4.314;2023-04-24T05:37:32;100201.03;;;10.15
18161;BMP280;9205;52.032;4.314;2023-04-24T05:40:00;100211.97;;;10.17
18161;BMP280;9205;52.032;4.314;2023-04-24T05:42:27;100206.78;;;10.20
18161;BMP280;9205;52.032;4.314;2023-04-24T05:44:56;100212.84;;;10.16
18161;BMP280;9205;52.032;4.314;2023-04-24T05:47:25;100225.47;;;10.18
18161;BMP280;9205;52.032;4.314;2023-04-24T05:49:53;100228.81;;;10.20
18161;BMP280;9205;52.032;4.314;2023-04-24T05:52:20;100240.31;;;10.31
18161;BMP280;9205;52.032;4.314;2023-04-24T05:54:48;100244.78;;;10.23
18161;BMP280;9205;52.032;4.314;2023-04-24T05:57:20;100252.28;;;10.26
18161;BMP280;9205;52.032;4.314;2023-04-24T05:59:52;100258.41;;;10.21
18161;BMP280;9205;52.032;4.314;2023-04-24T06:02:21;100263.50;;;10.19
18161;BMP280;9205;52.032;4.314;2023-04-24T06:04:49;100270.56;;;10.10
18161;BMP280;9205;52.032;4.314;2023-04-24T06:07:17;100289.00;;;10.15
18161;BMP280;9205;52.032;4.314;2023-04-24T06:09:44;100290.78;;;10.13
18161;BMP280;9205;52.032;4.314;2023-04-24T06:12:12;100286.88;;;10.02
18161;BMP280;9205;52.032;4.314;2023-04-24T06:15:09;100303.13;;;9.93
18161;BMP280;9205;52.032;4.314;2023-04-24T06:18:03;100302.84;;;10.05
18161;BMP280;9205;52.032;4.314;2023-04-24T06:20:32;100299.50;;;10.03
18161;BMP280;9205;52.032;4.314;2023-04-24T06:23:01;100313.00;;;10.04
18161;BMP280;9205;52.032;4.314;2023-04-24T06:25:28;100313.81;;;10.06
18161;BMP280;9205;52.032;4.314;2023-04-24T06:27:56;100320.56;;;10.07
18161;BMP280;9205;52.032;4.314;2023-04-24T06:30:24;100330.72;;;10.07
18161;BMP280;9205;52.032;4.314;2023-04-24T06:32:51;100339.88;;;10.12
18161;BMP280;9205;52.032;4.314;2023-04-24T06:35:18;100339.63;;;10.21
18161;BMP280;9205;52.032;4.314;2023-04-24T06:37:47;100345.44;;;10.24
18161;BMP280;9205;52.032;4.314;2023-04-24T06:40:14;100354.00;;;10.20
18161;BMP280;9205;52.032;4.314;2023-04-24T06:42:41;100366.56;;;10.25
18161;BMP280;9205;52.032;4.314;2023-04-24T06:45:09;100365.59;;;10.30
18161;BMP280;9205;52.032;4.314;2023-04-24T06:47:36;100365.81;;;10.21
18161;BMP280;9205;52.032;4.314;2023-04-24T06:50:05;100387.97;;;10.16
18161;BMP280;9205;52.032;4.314;2023-04-24T06:52:33;100385.44;;;10.16
18161;BMP280;9205;52.032;4.314;2023-04-24T06:55:02;100394.66;;;10.19
18161;BMP280;9205;52.032;4.314;2023-04-24T06:57:29;100399.53;;;10.26
18161;BMP280;9205;52.032;4.314;2023-04-24T06:59:57;100398.78;;;10.23
18161;BMP280;9205;52.032;4.314;2023-04-24T07:02:24;100411.59;;;10.18
18161;BMP280;9205;52.032;4.314;2023-04-24T07:04:52;100411.69;;;10.15
18161;BMP280;9205;52.032;4.314;2023-04-24T07:07:19;100418.38;;;10.18
18161;BMP280;9205;52.032;4.314;2023-04-24T07:09:46;100424.16;;;10.23
18161;BMP280;9205;52.032;4.314;2023-04-24T07:12:16;100435.75;;;10.33
18161;BMP280;9205;52.032;4.314;2023-04-24T07:14:46;100437.47;;;10.31
18161;BMP280;9205;52.032;4.314;2023-04-24T07:17:14;100433.28;;;10.30
18161;BMP280;9205;52.032;4.314;2023-04-24T07:19:42;100451.94;;;10.29
18161;BMP280;9205;52.032;4.314;2023-04-24T07:22:09;100449.53;;;10.24
18161;BMP280;9205;52.032;4.314;2023-04-24T07:24:37;100454.63;;;10.23
18161;BMP280;9205;52.032;4.314;2023-04-24T07:27:05;100462.06;;;10.30
18161;BMP280;9205;52.032;4.314;2023-04-24T07:29:33;100465.47;;;10.29
18161;BMP280;9205;52.032;4.314;2023-04-24T07:32:01;100465.53;;;10.26
18161;BMP280;9205;52.032;4.314;2023-04-24T07:34:28;100467.25;;;10.26
18161;BMP280;9205;52.032;4.314;2023-04-24T07:36:55;100478.09;;;10.31
18161;BMP280;9205;52.032;4.314;2023-04-24T07:39:23;100477.88;;;10.40
18161;BMP280;9205;52.032;4.314;2023-04-24T07:41:52;100479.59;;;10.39
18161;BMP280;9205;52.032;4.314;2023-04-24T07:44:19;100490.78;;;10.32
18161;BMP280;9205;52.032;4.314;2023-04-24T07:46:47;100486.69;;;10.27
18161;BMP280;9205;52.032;4.314;2023-04-24T07:49:14;100496.84;;;10.27
18161;BMP280;9205;52.032;4.314;2023-04-24T07:51:42;100495.22;;;10.23
18161;BMP280;9205;52.032;4.314;2023-04-24T07:54:09;100501.94;;;10.25
18161;BMP280;9205;52.032;4.314;2023-04-24T07:56:36;100513.06;;;10.21
18161;BMP280;9205;52.032;4.314;2023-04-24T07:59:04;100509.44;;;10.30
18161;BMP280;9205;52.032;4.314;2023-04-24T08:01:31;100518.88;;;10.25
18161;BMP280;9205;52.032;4.314;2023-04-24T08:04:00;100520.66;;;10.21
18161;BMP280;9205;52.032;4.314;2023-04-24T08:06:28;100519.97;;;10.16
18161;BMP280;9205;52.032;4.314;2023-04-24T08:08:56;100529.03;;;10.25
18161;BMP280;9205;52.032;4.314;2023-04-24T08:11:24;100533.19;;;10.29
18161;BMP280;9205;52.032;4.314;2023-04-24T08:13:51;100539.78;;;10.36
18161;BMP280;9205;52.032;4.314;2023-04-24T08:16:18;100533.94;;;10.32
18161;BMP280;9205;52.032;4.314;2023-04-24T08:18:46;100552.38;;;10.40
18161;BMP280;9205;52.032;4.314;2023-04-24T08:21:14;100545.63;;;10.38
18161;BMP280;9205;52.032;4.314;2023-04-24T08:23:43;100562.59;;;10.37
18161;BMP280;9205;52.032;4.314;2023-04-24T08:26:10;100564.25;;;10.38
18161;BMP280;9205;52.032;4.314;2023-04-24T08:28:38;100566.41;;;10.20
18161;BMP280;9205;52.032;4.314;2023-04-24T08:31:05;100574.78;;;10.22
18161;BMP280;9205;52.032;4.314;2023-04-24T08:33:32;100574.03;;;10.18
18161;BMP280;9205;52.032;4.314;2023-04-24T08:36:02;100578.50;;;10.09
18161;BMP280;9205;52.032;4.314;2023-04-24T08:38:30;100573.50;;;10.06
18161;BMP280;9205;52.032;4.314;2023-04-24T08:41:00;100587.31;;;10.29
18161;BMP280;9205;52.032;4.314;2023-04-24T08:43:28;100587.09;;;10.38
18161;BMP280;9205;52.032;4.314;2023-04-24T08:45:56;100589.81;;;10.31
18161;BMP280;9205;52.032;4.314;2023-04-24T08:48:26;100599.16;;;10.30
18161;BMP280;9205;52.032;4.314;2023-04-24T08:50:54;100600.88;;;10.28
18161;BMP280;9205;52.032;4.314;2023-04-24T08:53:22;100605.16;;;10.26
18161;BMP280;9205;52.032;4.314;2023-04-24T08:55:54;100614.59;;;10.21
18161;BMP280;9205;52.032;4.314;2023-04-24T08:58:25;100612.25;;;10.13
18161;BMP280;9205;52.032;4.314;2023-04-24T09:00:55;100614.94;;;10.07
18161;BMP280;9205;52.032;4.314;2023-04-24T09:03:23;100611.41;;;10.13
18161;BMP280;9205;52.032;4.314;2023-04-24T09:05:52;100622.28;;;10.18
18161;BMP280;9205;52.032;4.314;2023-04-24T09:08:24;100614.28;;;10.33
18161;BMP280;9205;52.032;4.314;2023-04-24T09:10:52;100616.50;;;10.47
18161;BMP280;9205;52.032;4.314;2023-04-24T09:13:20;100624.72;;;10.56
18161;BMP280;9205;52.032;4.314;2023-04-24T09:15:48;100613.66;;;10.60
18161;BMP280;9205;52.032;4.314;2023-04-24T09:18:15;100616.03;;;10.66
18161;BMP280;9205;52.032;4.314;2023-04-24T09:20:59;100623.03;;;10.90
18161;BMP280;9205;52.032;4.314;2023-04-24T09:23:28;100633.06;;;10.94
18161;BMP280;9205;52.032;4.314;2023-04-24T09:25:58;100640.69;;;10.94
18161;BMP280;9205;52.032;4.314;2023-04-24T09:28:29;100631.34;;;10.95
18161;BMP280;9205;52.032;4.314;2023-04-24T09:31:05;100629.53;;;11.00
18161;BMP280;9205;52.032;4.314;2023-04-24T09:33:33;100631.88;;;11.07
18161;BMP280;9205;52.032;4.314;2023-04-24T09:36:01;100637.06;;;11.03
18161;BMP280;9205;52.032;4.314;2023-04-24T09:38:33;100641.97;;;11.10
18161;BMP280;9205;52.032;4.314;2023-04-24T09:41:04;100646.06;;;11.16
18161;BMP280;9205;52.032;4.314;2023-04-24T09:43:32;100644.28;;;11.18
18161;BMP280;9205;52.032;4.314;2023-04-24T09:46:07;100652.94;;;11.12
18161;BMP280;9205;52.032;4.314;2023-04-24T09:48:37;100666.41;;;11.16
18161;BMP280;9205;52.032;4.314;2023-04-24T09:51:06;100668.47;;;11.02
18161;BMP280;9205;52.032;4.314;2023-04-24T09:53:36;100677.50;;;11.13
18161;BMP280;9205;52.032;4.314;2023-04-24T09:56:10;100686.00;;;11.11
18161;BMP280;9205;52.032;4.314;2023-04-24T09:58:38;100677.50;;;11.13
18161;BMP280;9205;52.032;4.314;2023-04-24T10:01:05;100689.59;;;11.36
18161;BMP280;9205;52.032;4.314;2023-04-24T10:03:33;100686.47;;;11.26
18161;BMP280;9205;52.032;4.314;2023-04-24T10:06:02;100689.94;;;11.24
18161;BMP280;9205;52.032;4.314;2023-04-24T10:08:34;100693.91;;;11.02
18161;BMP280;9205;52.032;4.314;2023-04-24T10:11:02;100706.78;;;10.94
18161;BMP280;9205;52.032;4.314;2023-04-24T10:13:32;100695.81;;;10.92
18161;BMP280;9205;52.032;4.314;2023-04-24T10:16:02;100701.63;;;10.97
18161;BMP280;9205;52.032;4.314;2023-04-24T10:18:30;100689.84;;;10.93
18161;BMP280;9205;52.032;4.314;2023-04-24T10:21:01;100693.16;;;10.97
18161;BMP280;9205;52.032;4.314;2023-04-24T10:23:29;100689.69;;;11.01
18161;BMP280;9205;52.032;4.314;2023-04-24T10:25:58;100696.34;;;11.05
18161;BMP280;9205;52.032;4.314;2023-04-24T10:28:27;100709.84;;;11.07
18161;BMP280;9205;52.032;4.314;2023-04-24T10:30:58;100704.28;;;10.93
18161;BMP280;9205;52.032;4.314;2023-04-24T10:33:26;100708.78;;;11.15
18161;BMP280;9205;52.032;4.314;2023-04-24T10:35:54;100713.50;;;11.29
18161;BMP280;9205;52.032;4.314;2023-04-24T10:38:25;100712.41;;;11.71
18161;BMP280;9205;52.032;4.314;2023-04-24T10:41:07;100711.22;;;11.82
18161;BMP280;9205;52.032;4.314;2023-04-24T10:43:35;100719.81;;;11.78
18161;BMP280;9205;52.032;4.314;2023-04-24T10:46:05;100736.59;;;11.55
18161;BMP280;9205;52.032;4.314;2023-04-24T10:48:33;100745.47;;;11.39
18161;BMP280;9205;52.032;4.314;2023-04-24T10:51:01;100733.91;;;11.26
18161;BMP280;9205;52.032;4.314;2023-04-24T10:53:30;100732.19;;;11.28
18161;BMP280;9205;52.032;4.314;2023-04-24T10:56:02;100739.28;;;11.47
18161;BMP280;9205;52.032;4.314;2023-04-24T10:58:38;100732.84;;;11.68
18161;BMP280;9205;52.032;4.314;2023-04-24T11:01:07;100733.09;;;11.87
18161;BMP280;9205;52.032;4.314;2023-04-24T11:03:35;100734.97;;;12.66
18161;BMP280;9205;52.032;4.314;2023-04-24T11:06:05;100736.41;;;13.02
18161;BMP280;9205;52.032;4.314;2023-04-24T11:08:40;100735.19;;;12.86
18161;BMP280;9205;52.032;4.314;2023-04-24T11:11:11;100749.03;;;13.05
18161;BMP280;9205;52.032;4.314;2023-04-24T11:14:04;100752.06;;;12.90
18161;BMP280;9205;52.032;4.314;2023-04-24T11:16:38;100755.06;;;12.75
18161;BMP280;9205;52.032;4.314;2023-04-24T11:19:08;100758.75;;;12.66
18161;BMP280;9205;52.032;4.314;2023-04-24T11:21:43;100763.41;;;12.80
18161;BMP280;9205;52.032;4.314;2023-04-24T11:24:25;100770.56;;;12.69
18161;BMP280;9205;52.032;4.314;2023-04-24T11:26:55;100771.84;;;12.54
18161;BMP280;9205;52.032;4.314;2023-04-24T11:29:38;100773.59;;;12.54
18161;BMP280;9205;52.032;4.314;2023-04-24T11:32:17;100782.78;;;12.58
18161;BMP280;9205;52.032;4.314;2023-04-24T11:34:47;100789.88;;;12.48
18161;BMP280;9205;52.032;4.314;2023-04-24T11:37:15;100779.91;;;12.68
18161;BMP280;9205;52.032;4.314;2023-04-24T11:39:42;100781.41;;;12.75
18161;BMP280;9205;52.032;4.314;2023-04-24T11:42:10;100791.16;;;12.63
18161;BMP280;9205;52.032;4.314;2023-04-24T11:44:38;100800.47;;;12.64
18161;BMP280;9205;52.032;4.314;2023-04-24T11:47:05;100804.75;;;12.62
18161;BMP280;9205;52.032;4.314;2023-04-24T11:49:36;100802.06;;;12.39
18161;BMP280;9205;52.032;4.314;2023-04-24T11:52:04;100803.81;;;12.37
18161;BMP280;9205;52.032;4.314;2023-04-24T11:54:32;100805.16;;;12.48
18161;BMP280;9205;52.032;4.314;2023-04-24T11:56:59;100813.56;;;12.52
18161;BMP280;9205;52.032;4.314;2023-04-24T11:59:26;100815.72;;;12.37
18161;BMP280;9205;52.032;4.314;2023-04-24T12:01:53;100825.38;;;11.95
18161;BMP280;9205;52.032;4.314;2023-04-24T12:04:20;100825.16;;;11.72
18161;BMP280;9205;52.032;4.314;2023-04-24T12:07:01;100834.84;;;11.60
18161;BMP280;9205;52.032;4.314;2023-04-24T12:09:40;100832.22;;;11.28
18161;BMP280;9205;52.032;4.314;2023-04-24T12:12:08;100834.22;;;11.16
18161;BMP280;9205;52.032;4.314;2023-04-24T12:14:43;100832.88;;;11.35
18161;BMP280;9205;52.032;4.314;2023-04-24T12:17:11;100832.47;;;11.53
18161;BMP280;9205;52.032;4.314;2023-04-24T12:19:45;100833.59;;;11.74
18161;BMP280;9205;52.032;4.314;2023-04-24T12:22:13;100840.94;;;11.85
18161;BMP280;9205;52.032;4.314;2023-04-24T12:25:01;100837.28;;;12.25
18161;BMP280;9205;52.032;4.314;2023-04-24T12:27:40;100839.66;;;12.31
18161;BMP280;9205;52.032;4.314;2023-04-24T12:30:13;100848.03;;;12.06
18161;BMP280;9205;52.032;4.314;2023-04-24T12:32:43;100852.81;;;12.16
18161;BMP280;9205;52.032;4.314;2023-04-24T12:35:10;100835.19;;;12.38
18161;BMP280;9205;52.032;4.314;2023-04-24T12:37:42;100853.03;;;12.38
18161;BMP280;9205;52.032;4.314;2023-04-24T12:40:11;100857.84;;;12.48
18161;BMP280;9205;52.032;4.314;2023-04-24T12:42:43;100850.81;;;12.56
18161;BMP280;9205;52.032;4.314;2023-04-24T12:45:11;100857.75;;;12.51
18161;BMP280;9205;52.032;4.314;2023-04-24T12:47:41;100872.41;;;12.43
18161;BMP280;9205;52.032;4.314;2023-04-24T12:50:10;100879.84;;;12.20
18161;BMP280;9205;52.032;4.314;2023-04-24T12:52:40;100874.22;;;12.09
18161;BMP280;9205;52.032;4.314;2023-04-24T12:55:08;100873.38;;;12.09
18161;BMP280;9205;52.032;4.314;2023-04-24T12:57:38;100887.38;;;11.94
18161;BMP280;9205;52.032;4.314;2023-04-24T13:00:08;100884.47;;;11.74
18161;BMP280;9205;52.032;4.314;2023-04-24T13:02:35;100894.88;;;11.67
18161;BMP280;9205;52.032;4.314;2023-04-24T13:05:06;100881.63;;;11.55
18161;BMP280;9205;52.032;4.314;2023-04-24T13:07:34;100878.16;;;11.57
18161;BMP280;9205;52.032;4.314;2023-04-24T13:10:03;100879.56;;;12.00
18161;BMP280;9205;52.032;4.314;2023-04-24T13:12:30;100869.41;;;12.29
18161;BMP280;9205;52.032;4.314;2023-04-24T13:14:58;100882.84;;;12.34
18161;BMP280;9205;52.032;4.314;2023-04-24T13:17:25;100884.72;;;12.58
18161;BMP280;9205;52.032;4.314;2023-04-24T13:19:55;100879.91;;;12.78
18161;BMP280;9205;52.032;4.314;2023-04-24T13:22:22;100892.22;;;12.62
18161;BMP280;9205;52.032;4.314;2023-04-24T13:24:49;100893.66;;;12.42
18161;BMP280;9205;52.032;4.314;2023-04-24T13:27:18;100893.38;;;12.22
18161;BMP280;9205;52.032;4.314;2023-04-24T13:29:45;100900.91;;;12.27
18161;BMP280;9205;52.032;4.314;2023-04-24T13:32:13;100905.72;;;12.37
18161;BMP280;9205;52.032;4.314;2023-04-24T13:34:40;100905.78;;;12.34
18161;BMP280;9205;52.032;4.314;2023-04-24T13:37:07;100911.06;;;12.58
18161;BMP280;9205;52.032;4.314;2023-04-24T13:39:36;100897.00;;;12.73
18161;BMP280;9205;52.032;4.314;2023-04-24T13:42:03;100906.41;;;13.01
18161;BMP280;9205;52.032;4.314;2023-04-24T13:44:32;100884.31;;;13.27
18161;BMP280;9205;52.032;4.314;2023-04-24T13:46:59;100904.53;;;13.33
18161;BMP280;9205;52.032;4.314;2023-04-24T13:49:27;100895.63;;;13.46
18161;BMP280;9205;52.032;4.314;2023-04-24T13:51:55;100897.38;;;13.44
18161;BMP280;9205;52.032;4.314;2023-04-24T13:54:23;100906.25;;;13.06
18161;BMP280;9205;52.032;4.314;2023-04-24T13:56:52;100913.34;;;12.67
18161;BMP280;9205;52.032;4.314;2023-04-24T13:59:20;100894.22;;;12.53
18161;BMP280;9205;52.032;4.314;2023-04-24T14:01:49;100914.44;;;12.29
18161;BMP280;9205;52.032;4.314;2023-04-24T14:04:16;100919.63;;;11.94
18161;BMP280;9205;52.032;4.314;2023-04-24T14:06:44;100915.06;;;11.73
18161;BMP280;9205;52.032;4.314;2023-04-24T14:09:11;100914.22;;;11.72
18161;BMP280;9205;52.032;4.314;2023-04-24T14:11:38;100916.06;;;11.68
18161;BMP280;9205;52.032;4.314;2023-04-24T14:14:06;100911.59;;;11.75
18161;BMP280;9205;52.032;4.314;2023-04-24T14:16:34;100923.94;;;11.90
18161;BMP280;9205;52.032;4.314;2023-04-24T14:19:02;100917.53;;;12.09
18161;BMP280;9205;52.032;4.314;2023-04-24T14:21:30;100919.28;;;12.07
18161;BMP280;9205;52.032;4.314;2023-04-24T14:23:58;100904.78;;;12.09